Time;durP1;ratioP1;P1;durP2;ratioP2;P2;SDS_P1;SDS_P2;PMS_P1;PMS_P2;Temp;Humidity;BMP_temperature;BMP_pressure;BME280_temperature;BME280_humidity;BME280_pressure;Samples;Min_cycle;Max_cycle;Signal;HPM_P1;HPM_P2
2022/01/31 00:00:23;;;;;;;;;15.25;4.00;;;;;9.71;57.02;102053.16;5042512;28;45412;-81
2022/01/31 00:02:49;;;;;;;;;7.50;4.00;;;;;9.62;57.29;102032.63;5033146;28;56460;-81
2022/01/31 00:05:14;;;;;;;;;11.75;6.00;;;;;9.67;57.45;102038.06;5049478;28;45443;-81
2022/01/31 00:07:40;;;;;;;;;7.75;4.00;;;;;9.60;57.68;102031.69;5058471;28;45547;-81
2022/01/31 00:10:09;;;;;;;;;10.75;7.00;;;;;9.71;57.47;102026.78;5040933;28;45597;-81
2022/01/31 00:12:46;;;;;;;;;7.00;6.00;;;;;9.71;57.56;102021.50;5034082;28;47705;-81
2022/01/31 00:15:11;;;;;;;;;7.00;4.00;;;;;9.73;57.61;102014.53;5057357;28;45479;-81
2022/01/31 00:17:37;;;;;;;;;10.00;6.50;;;;;9.68;57.85;101995.91;5056851;28;45844;-81
2022/01/31 00:20:02;;;;;;;;;11.50;6.50;;;;;9.50;57.83;101978.59;5054053;28;54229;-81
2022/01/31 00:22:28;;;;;;;;;12.00;4.00;;;;;9.55;57.99;101987.56;5057732;28;46252;-81
2022/01/31 00:24:53;;;;;;;;;16.25;8.25;;;;;9.47;58.32;101996.94;5036486;28;59119;-81
2022/01/31 00:27:19;;;;;;;;;7.50;6.00;;;;;9.38;58.37;101993.16;5053159;28;45257;-81
2022/01/31 00:29:44;;;;;;;;;7.75;4.50;;;;;9.44;58.44;102000.38;5033200;28;45620;-81
2022/01/31 00:32:09;;;;;;;;;8.00;4.00;;;;;9.47;58.71;101991.66;5071102;27;45692;-81
2022/01/31 00:34:35;;;;;;;;;11.00;6.00;;;;;9.45;58.60;101981.97;5057270;28;55799;-81
2022/01/31 00:37:00;;;;;;;;;6.25;5.00;;;;;9.44;58.92;101979.28;5040467;28;50969;-80
2022/01/31 00:39:26;;;;;;;;;6.00;6.00;;;;;9.48;58.55;101980.28;5057749;28;45387;-80
2022/01/31 00:41:51;;;;;;;;;6.75;4.00;;;;;9.34;58.69;101966.63;5042141;28;47383;-81
2022/01/31 00:44:20;;;;;;;;;11.00;4.00;;;;;9.47;58.44;101997.84;5057454;28;47527;-81
2022/01/31 00:46:59;;;;;;;;;8.00;6.00;;;;;9.52;58.97;102008.53;5048859;28;45420;-81
2022/01/31 00:51:56;;;;;;;;;9.75;6.50;;;;;9.60;58.84;101993.88;5052847;28;45621;-81
2022/01/31 00:54:21;;;;;;;;;6.75;5.75;;;;;9.61;58.83;101993.94;5039965;28;62134;-82
2022/01/31 00:56:47;;;;;;;;;8.75;4.00;;;;;9.61;58.64;101988.66;5038977;28;45379;-81
2022/01/31 00:59:13;;;;;;;;;6.50;3.75;;;;;9.56;58.62;101973.53;5050632;28;45403;-81
2022/01/31 01:01:38;;;;;;;;;7.33;3.00;;;;;9.64;58.68;101969.38;5038937;28;47408;-81
2022/01/31 01:04:03;;;;;;;;;12.50;5.00;;;;;9.59;58.10;101957.81;5069124;28;52214;-81
2022/01/31 01:06:29;;;;;;;;;7.00;4.00;;;;;9.59;58.16;101952.56;5073762;28;45996;-81
2022/01/31 01:08:54;;;;;;;;;6.00;4.00;;;;;9.61;58.10;101942.94;5073115;28;50825;-81
2022/01/31 01:11:20;;;;;;;;;6.67;3.00;;;;;9.58;58.50;101945.47;5050289;28;48126;-81
2022/01/31 01:13:45;;;;;;;;;6.67;3.67;;;;;9.56;58.45;101934.88;5036049;28;57806;-81
2022/01/31 01:16:10;;;;;;;;;6.33;3.00;;;;;9.56;58.41;101916.41;5055105;28;51008;-81
2022/01/31 01:18:36;;;;;;;;;2.00;2.00;;;;;9.64;58.47;101919.28;5072173;28;51803;-80
2022/01/31 01:21:01;;;;;;;;;5.67;3.00;;;;;9.67;58.23;101922.03;5074234;28;53966;-81
2022/01/31 01:23:27;;;;;;;;;6.00;2.67;;;;;9.69;58.66;101915.06;5040571;28;46828;-81
2022/01/31 01:25:52;;;;;;;;;3.00;3.00;;;;;9.73;58.43;101897.59;5075225;28;53808;-80
2022/01/31 01:28:20;;;;;;;;;7.67;6.00;;;;;9.76;58.30;101872.22;5054998;28;45562;-81
2022/01/31 01:30:46;;;;;;;;;6.33;2.00;;;;;9.75;58.47;101864.25;5060747;27;45639;-80
2022/01/31 01:33:18;;;;;;;;;3.67;2.00;;;;;9.63;58.48;101844.56;5039756;28;46031;-81
2022/01/31 01:35:45;;;;;;;;;8.00;4.00;;;;;9.66;58.60;101847.31;5054384;28;45537;-80
2022/01/31 01:38:15;;;;;;;;;2.75;2.75;;;;;9.65;58.47;101853.44;5076508;28;46097;-81
2022/01/31 01:40:40;;;;;;;;;7.75;3.25;;;;;9.55;58.89;101816.19;5060353;28;46770;-81
2022/01/31 01:43:06;;;;;;;;;2.67;2.00;;;;;9.61;58.82;101841.00;5059332;28;45641;-81
2022/01/31 01:45:32;;;;;;;;;3.25;2.25;;;;;9.60;58.80;101844.47;5039847;28;45275;-81
2022/01/31 01:47:57;;;;;;;;;2.33;2.33;;;;;9.61;59.29;101856.81;5059431;28;45327;-80
2022/01/31 01:50:23;;;;;;;;;6.33;2.00;;;;;9.59;59.22;101839.16;5060337;28;46398;-81
2022/01/31 01:52:50;;;;;;;;;4.33;1.00;;;;;9.65;59.38;101834.09;5076972;28;45944;-81
2022/01/31 01:55:15;;;;;;;;;7.00;2.33;;;;;9.53;59.32;101799.41;5036624;28;45470;-81
2022/01/31 01:57:42;;;;;;;;;3.00;2.00;;;;;9.57;59.71;101843.47;5057636;28;45474;-80
2022/01/31 02:00:09;;;;;;;;;7.25;2.50;;;;;9.54;59.71;101843.41;5059832;28;46717;-80
2022/01/31 02:02:35;;;;;;;;;7.00;1.33;;;;;9.57;60.20;101840.84;5056117;28;45364;-81
2022/01/31 02:05:00;;;;;;;;;7.33;4.00;;;;;9.62;60.00;101826.06;5042960;28;45409;-81
2022/01/31 02:07:26;;;;;;;;;3.33;2.00;;;;;9.62;60.00;101826.06;5073718;28;47727;-81
2022/01/31 02:09:55;;;;;;;;;8.00;2.00;;;;;9.62;60.01;101812.88;5054663;28;45611;-81
2022/01/31 02:12:20;;;;;;;;;4.00;2.00;;;;;9.70;59.84;101820.19;5068720;28;45451;-80
2022/01/31 02:14:46;;;;;;;;;3.25;2.75;;;;;9.63;60.11;101802.38;5076459;28;45257;-81
2022/01/31 02:17:11;;;;;;;;;6.00;3.67;;;;;9.61;60.19;101787.38;5076323;27;47871;-80
2022/01/31 02:19:38;;;;;;;;;7.75;2.00;;;;;9.53;60.58;101786.22;5058438;28;48173;-81
2022/01/31 02:22:03;;;;;;;;;9.67;2.00;;;;;9.52;61.14;101785.34;5075959;28;45307;-80
2022/01/31 02:24:30;;;;;;;;;4.00;2.00;;;;;9.48;61.17;101785.19;5043074;28;45348;-80
2022/01/31 02:26:56;;;;;;;;;6.50;3.00;;;;;9.51;61.71;101802.00;5056409;28;45522;-81
2022/01/31 02:29:21;;;;;;;;;7.50;2.00;;;;;9.48;61.66;101772.94;5059834;28;47825;-80
2022/01/31 02:31:47;;;;;;;;;2.75;2.00;;;;;9.53;61.58;101760.75;5057828;28;57354;-81
2022/01/31 02:34:13;;;;;;;;;8.50;2.00;;;;;9.45;62.09;101744.72;5038283;28;45545;-81
2022/01/31 02:36:38;;;;;;;;;13.00;1.67;;;;;9.42;62.30;101739.34;5074831;28;45405;-80
2022/01/31 02:39:05;;;;;;;;;7.25;2.00;;;;;9.43;62.15;101753.44;5036810;28;54792;-81
2022/01/31 02:41:30;;;;;;;;;1.67;1.00;;;;;9.41;62.98;101745.47;5056454;28;45487;-81
2022/01/31 02:43:56;;;;;;;;;8.00;2.00;;;;;9.44;62.70;101749.94;5057676;28;45534;-81
2022/01/31 02:46:24;;;;;;;;;4.25;2.00;;;;;9.45;62.85;101743.81;5042612;28;45458;-81
2022/01/31 02:48:51;;;;;;;;;5.75;3.00;;;;;9.46;63.46;101745.59;5039635;28;47327;-80
2022/01/31 02:51:21;;;;;;;;;2.33;2.00;;;;;9.43;63.84;101732.34;5074759;28;45468;-80
2022/01/31 02:53:46;;;;;;;;;3.00;2.00;;;;;9.54;63.51;101740.59;5059995;28;45387;-80
2022/01/31 02:56:12;;;;;;;;;4.00;2.67;;;;;9.43;63.35;101733.25;5076591;28;45276;-81
2022/01/31 02:58:37;;;;;;;;;8.00;3.00;;;;;9.51;63.54;101743.13;5075126;28;53150;-81
2022/01/31 03:01:02;;;;;;;;;2.50;1.75;;;;;9.50;63.88;101738.69;5058253;28;60130;-81
2022/01/31 03:03:28;;;;;;;;;1.33;1.33;;;;;9.49;63.83;101721.09;5058749;28;45794;-81
2022/01/31 03:05:53;;;;;;;;;2.67;1.00;;;;;9.41;64.93;101719.09;5070720;28;45374;-81
2022/01/31 03:08:19;;;;;;;;;6.00;2.00;;;;;9.36;65.67;101689.06;5075510;28;45809;-80
2022/01/31 03:10:44;;;;;;;;;5.25;2.00;;;;;9.35;66.78;101696.94;5049300;28;53250;-81
2022/01/31 03:13:09;;;;;;;;;3.00;1.25;;;;;9.35;65.64;101686.41;5075633;28;51309;-81
2022/01/31 03:15:35;;;;;;;;;3.00;1.00;;;;;9.26;66.94;101694.03;5058432;28;50098;-81
2022/01/31 03:18:00;;;;;;;;;7.00;1.00;;;;;9.26;66.71;101679.09;5070020;28;47402;-81
2022/01/31 03:20:26;;;;;;;;;3.00;1.33;;;;;9.18;66.36;101672.72;5058290;28;45452;-81
2022/01/31 03:22:51;;;;;;;;;2.00;1.00;;;;;9.19;66.91;101692.97;5058706;28;45226;-81
2022/01/31 03:25:17;;;;;;;;;5.50;2.00;;;;;9.23;66.72;101694.84;5058931;28;45468;-81
2022/01/31 03:27:43;;;;;;;;;2.67;1.67;;;;;9.18;66.64;101685.91;5058157;28;46477;-81
2022/01/31 03:30:13;;;;;;;;;4.33;1.33;;;;;9.29;66.86;101700.31;5074341;28;45402;-81
2022/01/31 03:32:39;;;;;;;;;2.00;1.00;;;;;9.24;67.43;101680.81;5059142;28;45446;-81
2022/01/31 03:35:05;;;;;;;;;3.00;1.67;;;;;9.37;67.18;101700.50;5041004;28;45253;-81
2022/01/31 03:37:30;;;;;;;;;2.50;1.00;;;;;9.38;67.56;101687.41;5038878;28;47382;-81
2022/01/31 03:39:56;;;;;;;;;1.00;1.00;;;;;9.40;68.93;101675.16;5055155;28;45243;-81
2022/01/31 03:42:21;;;;;;;;;2.00;1.00;;;;;9.49;68.04;101681.56;5056155;28;48769;-81
2022/01/31 03:44:47;;;;;;;;;3.33;1.00;;;;;9.44;69.05;101673.50;5039397;28;45543;-81
2022/01/31 03:47:13;;;;;;;;;1.00;1.00;;;;;9.38;68.47;101658.41;5050006;28;46305;-81
2022/01/31 03:49:39;;;;;;;;;2.00;2.00;;;;;9.51;68.93;101680.72;5041414;28;46235;-80
2022/01/31 03:52:04;;;;;;;;;1.00;0.00;;;;;9.47;69.36;101672.69;5052394;28;45868;-81
2022/01/31 03:54:30;;;;;;;;;5.67;1.00;;;;;9.51;69.50;101683.38;5075722;28;45514;-81
2022/01/31 03:56:55;;;;;;;;;4.00;1.00;;;;;9.52;69.88;101648.25;5074597;28;60752;-80
2022/01/31 03:59:20;;;;;;;;;1.00;1.00;;;;;9.48;70.45;101669.19;5075753;28;55822;-81
2022/01/31 04:01:46;;;;;;;;;6.33;1.00;;;;;9.50;71.23;101675.44;5038228;28;45565;-80
2022/01/31 04:04:13;;;;;;;;;3.33;2.00;;;;;9.41;70.81;101681.31;5038272;28;45669;-81
2022/01/31 04:06:39;;;;;;;;;2.00;2.00;;;;;9.48;71.44;101688.56;5073295;28;46722;-81
2022/01/31 04:09:04;;;;;;;;;5.33;1.33;;;;;9.45;71.93;101678.81;5051682;28;45354;-80
2022/01/31 04:11:30;;;;;;;;;6.67;1.67;;;;;9.35;71.68;101670.59;5038128;28;45447;-82
2022/01/31 04:13:55;;;;;;;;;3.33;1.00;;;;;9.38;72.12;101671.59;5058576;28;45592;-80
2022/01/31 04:16:20;;;;;;;;;2.00;1.00;;;;;9.37;73.17;101667.13;5057445;28;47260;-80
2022/01/31 04:18:46;;;;;;;;;1.00;1.00;;;;;9.42;72.08;101672.56;5054944;28;46476;-81
2022/01/31 04:21:13;;;;;;;;;2.00;0.00;;;;;9.41;72.05;101676.03;5075250;28;45644;-81
2022/01/31 04:23:38;;;;;;;;;2.00;0.33;;;;;9.44;73.81;101673.50;5057498;28;45455;-81
2022/01/31 04:26:21;;;;;;;;;1.00;1.00;;;;;9.44;73.74;101674.41;5064703;28;46487;-80
2022/01/31 04:28:50;;;;;;;;;2.00;1.00;;;;;9.47;73.01;101684.13;5060407;28;46569;-80
2022/01/31 04:33:45;;;;;;;;;1.00;1.00;;;;;9.45;72.76;101665.63;5046439;28;45481;-81
2022/01/31 04:36:10;;;;;;;;;3.00;1.00;;;;;9.48;72.41;101677.09;5049323;28;45565;-81
2022/01/31 04:38:36;;;;;;;;;3.67;1.00;;;;;9.49;72.38;101677.16;5042682;28;56681;-81
2022/01/31 04:41:02;;;;;;;;;4.33;1.00;;;;;9.46;72.79;101687.63;5055867;28;45412;-81
2022/01/31 04:43:27;;;;;;;;;0.00;0.00;;;;;9.50;73.68;101692.13;5041114;28;45380;-81
2022/01/31 04:45:55;;;;;;;;;2.00;0.33;;;;;9.50;72.79;101681.59;5057329;28;45433;-81
2022/01/31 04:48:21;;;;;;;;;2.00;1.00;;;;;9.53;72.62;101680.75;5075790;28;45480;-81
2022/01/31 04:50:46;;;;;;;;;1.33;0.67;;;;;9.51;72.78;101687.75;5057847;28;45518;-81
2022/01/31 04:53:12;;;;;;;;;2.00;1.00;;;;;9.39;72.98;101661.94;5039242;28;45478;-81
2022/01/31 04:55:37;;;;;;;;;1.33;1.00;;;;;9.42;73.34;101670.81;5075816;28;46058;-81
2022/01/31 04:58:03;;;;;;;;;4.00;0.00;;;;;9.42;72.97;101683.97;5060868;28;45727;-81
2022/01/31 05:00:28;;;;;;;;;0.00;0.00;;;;;9.41;73.40;101711.19;5038985;28;45486;-81
2022/01/31 05:02:54;;;;;;;;;2.33;1.00;;;;;9.42;73.42;101691.88;5044568;28;45330;-81
2022/01/31 05:05:20;;;;;;;;;0.00;0.00;;;;;9.36;72.75;101685.56;5058237;28;46688;-81
2022/01/31 05:07:45;;;;;;;;;4.00;1.00;;;;;9.40;73.00;101709.41;5039664;28;46362;-80
2022/01/31 05:10:10;;;;;;;;;1.00;1.00;;;;;9.36;72.35;101696.97;5074121;28;45284;-81
2022/01/31 05:12:36;;;;;;;;;2.00;0.00;;;;;9.37;71.93;101714.59;5075867;28;45548;-81
2022/01/31 05:15:01;;;;;;;;;1.67;1.00;;;;;9.47;71.29;101722.78;5060993;28;48280;-82
2022/01/31 05:17:27;;;;;;;;;1.00;1.00;;;;;9.47;71.08;101714.88;5043003;28;45973;-81
2022/01/31 05:19:52;;;;;;;;;1.00;1.00;;;;;9.49;70.69;101716.72;5072107;28;54139;-81
2022/01/31 05:22:18;;;;;;;;;1.00;1.00;;;;;9.56;70.40;101712.50;5057453;28;45335;-82
2022/01/31 05:24:43;;;;;;;;;3.33;1.00;;;;;9.62;69.93;101720.59;5055297;28;63099;-81
2022/01/31 05:27:08;;;;;;;;;0.00;0.00;;;;;9.62;69.48;101728.50;5077640;28;45557;-81
2022/01/31 05:29:34;;;;;;;;;3.00;0.67;;;;;9.63;69.01;101735.56;5073021;28;45542;-81
2022/01/31 05:31:59;;;;;;;;;1.00;1.00;;;;;9.58;68.88;101724.88;5035440;28;55593;-81
2022/01/31 05:34:24;;;;;;;;;3.33;0.00;;;;;9.62;67.99;101744.31;5040512;28;53453;-81
2022/01/31 05:36:54;;;;;;;;;5.33;1.00;;;;;9.59;66.94;101733.69;5057298;28;53138;-82
2022/01/31 05:39:21;;;;;;;;;1.33;1.00;;;;;9.47;67.20;101718.41;5060894;28;45604;-82
2022/01/31 05:41:46;;;;;;;;;0.67;0.67;;;;;9.55;66.95;101751.16;5060577;28;45383;-82
2022/01/31 05:44:12;;;;;;;;;6.00;0.67;;;;;9.52;67.04;101734.34;5059327;28;56543;-81
2022/01/31 05:46:37;;;;;;;;;2.00;1.00;;;;;9.48;66.90;101719.28;5054154;28;61233;-81
2022/01/31 05:49:02;;;;;;;;;2.00;0.00;;;;;9.44;66.44;101719.22;5040330;28;54638;-82
2022/01/31 05:51:28;;;;;;;;;0.00;0.00;;;;;9.43;66.10;101720.06;5069380;28;45391;-81
2022/01/31 05:53:53;;;;;;;;;0.00;0.00;;;;;9.45;66.54;101723.63;5052133;28;63335;-81
2022/01/31 05:56:19;;;;;;;;;2.67;0.67;;;;;9.42;66.74;101717.34;5042709;28;46234;-81
2022/01/31 05:58:44;;;;;;;;;2.00;0.33;;;;;9.43;66.56;101727.09;5039730;28;45459;-81
2022/01/31 06:01:10;;;;;;;;;2.33;1.00;;;;;9.46;66.21;101719.25;5058570;28;45489;-81
2022/01/31 06:03:35;;;;;;;;;6.00;1.00;;;;;9.42;66.44;101712.97;5055311;28;48595;-81
2022/01/31 06:06:01;;;;;;;;;6.33;1.33;;;;;9.42;66.17;101710.34;5060194;28;45531;-81
2022/01/31 06:08:26;;;;;;;;;1.00;1.00;;;;;9.42;65.60;101717.34;5058497;28;45368;-80
2022/01/31 06:10:52;;;;;;;;;3.67;1.00;;;;;9.44;66.02;101744.69;5064255;28;45485;-80
2022/01/31 06:13:23;;;;;;;;;2.00;0.00;;;;;9.40;65.58;101735.78;5055460;28;47840;-79
2022/01/31 06:15:48;;;;;;;;;0.00;0.00;;;;;9.40;65.52;101737.53;5064523;28;46545;-81
2022/01/31 06:18:14;;;;;;;;;4.67;0.00;;;;;9.41;65.20;101752.47;5058256;28;45565;-80
2022/01/31 06:20:40;;;;;;;;;1.33;1.33;;;;;9.37;65.01;101750.59;5058466;28;45610;-81
2022/01/31 06:23:05;;;;;;;;;1.33;0.67;;;;;9.40;65.02;101754.22;5076720;28;48369;-81
2022/01/31 06:25:31;;;;;;;;;3.00;1.00;;;;;9.39;64.91;101738.38;5041090;28;58874;-79
2022/01/31 06:27:57;;;;;;;;;3.00;1.00;;;;;9.36;65.11;101723.34;5059748;28;45378;-82
2022/01/31 06:30:22;;;;;;;;;4.00;1.00;;;;;9.37;64.90;101734.78;5040863;28;45433;-80
2022/01/31 06:32:47;;;;;;;;;1.00;1.00;;;;;9.37;64.83;101730.41;5057069;28;47460;-81
2022/01/31 06:35:13;;;;;;;;;3.33;0.00;;;;;9.37;64.54;101730.41;5052540;28;45460;-82
2022/01/31 06:37:38;;;;;;;;;0.00;0.00;;;;;9.42;64.42;101744.59;5057388;28;45633;-81
2022/01/31 06:40:05;;;;;;;;;0.67;0.67;;;;;9.31;64.03;101730.22;5050982;28;50487;-83
2022/01/31 06:42:30;;;;;;;;;1.67;1.00;;;;;9.39;63.72;101743.66;5055229;28;46436;-82
2022/01/31 06:44:56;;;;;;;;;0.00;0.00;;;;;9.38;63.98;101733.97;5042238;28;47212;-81
2022/01/31 06:47:21;;;;;;;;;1.33;0.00;;;;;9.30;63.82;101728.44;5042646;28;56927;-81
2022/01/31 06:49:47;;;;;;;;;4.00;1.00;;;;;9.28;63.66;101743.31;5059572;28;45270;-81
2022/01/31 06:52:12;;;;;;;;;7.33;1.00;;;;;9.27;64.38;101737.97;5076450;28;46647;-80
2022/01/31 06:54:37;;;;;;;;;1.00;1.00;;;;;9.30;63.63;101757.41;5058718;28;57798;-82
2022/01/31 06:57:04;;;;;;;;;2.00;0.67;;;;;9.30;63.75;101757.41;5076110;28;45262;-80
2022/01/31 06:59:30;;;;;;;;;5.33;1.00;;;;;9.21;63.41;101733.41;5039855;28;45567;-83
2022/01/31 07:01:55;;;;;;;;;2.00;1.00;;;;;9.22;63.55;101736.97;5067110;28;46515;-81
2022/01/31 07:04:21;;;;;;;;;4.67;0.33;;;;;9.28;63.40;101764.41;5039905;28;56327;-85
2022/01/31 07:06:46;;;;;;;;;1.00;1.00;;;;;9.21;62.99;101748.34;5057584;28;46253;-80
2022/01/31 07:09:12;;;;;;;;;2.00;0.00;;;;;9.26;63.08;101773.09;5053502;28;47458;-82
2022/01/31 07:11:40;;;;;;;;;2.00;1.00;;;;;9.24;62.75;101757.25;5056659;28;45871;-85
2022/01/31 07:14:13;;;;;;;;;2.00;1.00;;;;;9.16;62.71;101749.09;5055599;28;45480;-82
2022/01/31 07:16:39;;;;;;;;;0.33;0.33;;;;;9.26;62.37;101781.00;5071359;28;45472;-80
2022/01/31 07:19:07;;;;;;;;;2.67;1.00;;;;;9.23;62.50;101779.16;5058540;28;45534;-80
2022/01/31 07:21:47;;;;;;;;;3.67;0.67;;;;;9.22;62.67;101779.13;5056387;28;46096;-81
2022/01/31 07:26:49;;;;;;;;;3.00;1.33;;;;;9.23;62.04;101794.97;5052275;28;45572;-74
2022/01/31 07:29:15;;;;;;;;;4.00;0.00;;;;;9.15;62.42;101801.72;5072425;28;45478;-73
2022/01/31 07:31:41;;;;;;;;;7.00;1.00;;;;;9.08;61.62;101792.75;5053700;28;46720;-75
2022/01/31 07:34:07;;;;;;;;;2.67;1.00;;;;;8.94;62.50;101775.59;5064057;28;46076;-73
2022/01/31 07:36:32;;;;;;;;;1.00;1.00;;;;;9.03;62.87;101803.97;5080285;27;45485;-72
2022/01/31 07:38:57;;;;;;;;;1.33;0.33;;;;;9.04;62.03;101811.03;5074611;28;56336;-74
2022/01/31 07:41:23;;;;;;;;;2.25;1.00;;;;;9.02;62.13;101810.09;5067809;28;52590;-74
2022/01/31 07:43:48;;;;;;;;;2.00;0.00;;;;;8.87;61.66;101784.13;5074022;28;45689;-74
2022/01/31 07:46:14;;;;;;;;;1.33;0.00;;;;;8.93;62.15;101792.25;5072877;28;53156;-75
2022/01/31 07:48:39;;;;;;;;;2.33;1.00;;;;;9.13;61.68;101822.78;5071104;28;45460;-76
2022/01/31 07:51:05;;;;;;;;;2.33;1.00;;;;;9.16;61.88;101819.31;5047735;28;46981;-74
2022/01/31 07:53:30;;;;;;;;;0.33;0.33;;;;;9.11;62.09;101802.50;5073030;27;45492;-73
2022/01/31 07:55:56;;;;;;;;;6.00;0.33;;;;;9.17;61.73;101819.41;5074338;27;51339;-73
2022/01/31 07:58:21;;;;;;;;;1.67;1.33;;;;;9.15;61.55;101826.34;5073533;28;45586;-74
2022/01/31 08:00:47;;;;;;;;;3.33;1.33;;;;;9.13;61.18;101830.69;5072004;28;46394;-75
2022/01/31 08:03:13;;;;;;;;;2.67;1.00;;;;;9.16;61.54;101837.78;5071435;27;45491;-73
2022/01/31 08:05:38;;;;;;;;;3.00;0.00;;;;;9.18;61.55;101846.63;5072864;27;45536;-73
2022/01/31 08:08:04;;;;;;;;;5.33;1.00;;;;;9.11;61.64;101828.84;5070885;28;54928;-73
2022/01/31 08:10:31;;;;;;;;;1.00;1.00;;;;;9.21;62.05;101841.44;5069878;28;46101;-74
2022/01/31 08:12:57;;;;;;;;;3.50;2.00;;;;;9.21;61.39;101843.19;5074249;27;45490;-73
2022/01/31 08:15:27;;;;;;;;;2.33;1.33;;;;;9.22;61.33;101850.28;5073803;27;45491;-75
2022/01/31 08:17:52;;;;;;;;;4.67;1.00;;;;;9.33;61.81;101862.06;5074536;28;45492;-76
2022/01/31 08:20:18;;;;;;;;;5.33;1.00;;;;;9.34;61.55;101861.22;5070942;27;47772;-74
2022/01/31 08:22:43;;;;;;;;;6.00;1.00;;;;;9.37;61.22;101863.94;5073621;28;45532;-74
2022/01/31 08:25:14;;;;;;;;;2.67;1.67;;;;;9.39;61.01;101876.34;5072255;28;45959;-75
2022/01/31 08:27:45;;;;;;;;;8.00;3.00;;;;;9.43;61.61;101872.97;5068149;28;45666;-80
2022/01/31 08:30:15;;;;;;;;;2.00;1.00;;;;;9.53;61.38;101853.03;5051275;28;45827;-80
2022/01/31 08:32:45;;;;;;;;;7.33;1.00;;;;;9.58;61.40;101853.19;5052716;27;45562;-80
2022/01/31 08:37:55;;;;;;;;;5.33;1.00;;;;;9.65;61.38;101865.72;5071046;28;45483;-81
2022/01/31 08:40:21;;;;;;;;;4.67;1.00;;;;;9.76;61.08;101863.41;5042440;28;59797;-81
2022/01/31 08:42:46;;;;;;;;;2.00;0.00;;;;;9.71;60.99;101835.16;5037491;28;45473;-81
2022/01/31 08:45:11;;;;;;;;;4.00;1.00;;;;;9.87;60.99;101854.09;5055529;28;56421;-83
2022/01/31 08:47:41;;;;;;;;;3.00;2.33;;;;;9.87;60.25;101854.09;5056888;28;54375;-82
2022/01/31 08:50:07;;;;;;;;;7.00;2.33;;;;;9.70;60.88;101850.94;5070592;28;48077;-77
2022/01/31 08:52:33;;;;;;;;;7.33;2.00;;;;;9.83;61.06;101870.66;5057740;28;45400;-79
2022/01/31 08:54:58;;;;;;;;;6.00;1.00;;;;;9.84;60.65;101878.63;5056772;28;45579;-81
2022/01/31 08:57:24;;;;;;;;;2.00;1.67;;;;;9.87;61.28;101884.00;5055998;28;52670;-79
2022/01/31 08:59:51;;;;;;;;;4.00;1.00;;;;;9.88;60.84;101871.69;5059328;28;51353;-77
2022/01/31 09:02:29;;;;;;;;;2.00;1.00;;;;;9.95;60.78;101877.19;5055418;28;46489;-78
2022/01/31 09:04:55;;;;;;;;;5.00;2.00;;;;;10.04;60.34;101876.59;5056287;28;46410;-80
2022/01/31 09:07:21;;;;;;;;;3.67;1.00;;;;;10.12;60.29;101876.81;5073230;28;54299;-80
2022/01/31 09:09:53;;;;;;;;;9.67;3.00;;;;;10.18;60.03;101856.78;5038252;28;48727;-79
2022/01/31 09:12:24;;;;;;;;;3.67;2.00;;;;;10.29;59.49;101856.25;5049760;27;45511;-78
2022/01/31 09:14:49;;;;;;;;;1.67;1.67;;;;;10.25;59.40;101842.03;5073222;28;45498;-81
2022/01/31 09:17:15;;;;;;;;;7.67;2.00;;;;;10.17;59.10;101847.09;5075138;28;45511;-82
2022/01/31 09:19:40;;;;;;;;;9.00;2.00;;;;;10.16;59.29;101842.63;5058031;28;62462;-81
2022/01/31 09:22:06;;;;;;;;;6.33;2.00;;;;;10.15;58.84;101829.41;5055522;28;45510;-80
2022/01/31 09:24:37;;;;;;;;;8.00;5.00;;;;;10.19;59.52;101842.72;5073102;28;45491;-79
2022/01/31 09:27:03;;;;;;;;;7.33;2.00;;;;;10.25;59.16;101855.25;5075529;28;45715;-81
2022/01/31 09:29:28;;;;;;;;;3.33;1.00;;;;;10.22;58.51;101847.19;5073329;28;45586;-79
2022/01/31 09:31:54;;;;;;;;;3.33;0.00;;;;;10.14;58.46;101839.06;5181839;22;45812;-80
2022/01/31 09:34:21;;;;;;;;;3.33;1.00;;;;;10.17;58.27;101843.53;5046813;27;45497;-80
2022/01/31 09:36:46;;;;;;;;;2.67;1.00;;;;;10.26;57.81;101835.91;5047055;28;45552;-80
2022/01/31 09:39:15;;;;;;;;;5.67;2.67;;;;;10.32;57.29;101836.09;5014449;28;47654;-78
2022/01/31 09:41:43;;;;;;;;;1.67;1.00;;;;;10.27;56.71;101829.78;5055866;28;45608;-79
2022/01/31 09:46:53;;;;;;;;;2.67;1.00;;;;;10.49;57.63;101855.03;5051736;28;46026;-77
2022/01/31 09:49:21;;;;;;;;;4.33;2.00;;;;;10.48;57.43;101851.50;5054410;28;45316;-80
2022/01/31 09:51:46;;;;;;;;;7.00;1.00;;;;;10.63;57.35;101861.59;5034790;28;45484;-77
2022/01/31 09:54:12;;;;;;;;;3.00;1.67;;;;;10.65;57.24;101856.34;5049706;28;45557;-78
2022/01/31 09:56:43;;;;;;;;;5.00;0.33;;;;;10.54;56.74;101845.47;5053447;28;45295;-79
2022/01/31 09:59:10;;;;;;;;;2.00;0.67;;;;;10.66;56.77;101872.25;5051490;28;45775;-79
2022/01/31 10:01:36;;;;;;;;;3.00;1.00;;;;;10.68;56.57;101867.00;5051629;28;45240;-82
2022/01/31 10:04:16;;;;;;;;;0.00;0.00;;;;;10.58;56.25;101884.34;5051350;28;45551;-79
2022/01/31 10:06:43;;;;;;;;;4.00;0.00;;;;;10.47;56.25;101899.00;5050847;28;45441;-78
2022/01/31 10:09:24;;;;;;;;;0.67;0.67;;;;;10.38;56.10;101906.63;5039721;28;47966;-81
2022/01/31 10:11:51;;;;;;;;;11.33;1.67;;;;;10.32;56.10;101917.91;5035179;28;45692;-79
2022/01/31 10:17:11;;;;;;;;;6.33;1.67;;;;;10.45;55.40;101884.88;5054593;28;45534;-80
2022/01/31 10:19:38;;;;;;;;;2.67;2.00;;;;;10.49;55.18;101878.78;5053923;28;47459;-77
2022/01/31 10:22:05;;;;;;;;;3.33;0.67;;;;;10.58;55.40;101880.81;5037609;28;46411;-83
2022/01/31 10:24:32;;;;;;;;;2.67;0.33;;;;;10.62;55.16;101927.59;5025554;28;45555;-81
2022/01/31 10:27:05;;;;;;;;;5.67;1.67;;;;;10.67;56.47;101908.38;5050200;28;45568;-82
2022/01/31 10:29:30;;;;;;;;;3.33;0.00;;;;;10.67;57.65;101912.75;5037400;28;45477;-79
2022/01/31 10:32:03;;;;;;;;;3.00;1.00;;;;;10.67;57.90;101912.75;5039566;28;50062;-81
2022/01/31 10:34:37;;;;;;;;;2.33;0.00;;;;;10.54;58.91;101886.84;5051067;28;45647;-81
2022/01/31 10:37:05;;;;;;;;;3.67;2.00;;;;;10.52;59.04;101902.66;5031959;28;45586;-81
2022/01/31 10:53:40;;;;;;;;;1.00;1.00;;;;;10.57;58.04;101927.44;5053194;28;45577;-83
2022/01/31 10:56:05;;;;;;;;;1.33;1.33;;;;;10.60;58.46;101918.69;5052230;28;45613;-82
2022/01/31 10:58:30;;;;;;;;;1.00;1.00;;;;;10.72;58.29;101925.25;5042760;28;47339;-83
2022/01/31 11:01:19;;;;;;;;;6.33;1.00;;;;;10.82;57.99;101920.22;5049830;28;46665;-84
2022/01/31 11:03:45;;;;;;;;;3.33;1.00;;;;;10.82;57.88;101905.25;5015739;28;46489;-84
2022/01/31 11:06:11;;;;;;;;;2.33;1.00;;;;;10.93;57.83;101921.41;5020491;28;46993;-84
2022/01/31 11:08:37;;;;;;;;;2.00;1.00;;;;;10.97;56.56;101910.03;5034114;28;45496;-83
2022/01/31 11:11:03;;;;;;;;;4.00;1.00;;;;;10.88;56.36;101920.38;5019583;28;48375;-84
2022/01/31 11:13:28;;;;;;;;;2.00;1.00;;;;;10.81;55.69;101908.72;5036850;28;45706;-82
2022/01/31 11:15:54;;;;;;;;;0.00;0.00;;;;;10.82;56.12;101912.31;5049388;28;45470;-85
2022/01/31 11:18:20;;;;;;;;;3.00;1.00;;;;;10.98;55.00;101907.47;5034403;28;45593;-82
2022/01/31 11:20:48;;;;;;;;;2.00;0.33;;;;;11.05;54.22;101923.47;5057601;28;46472;-80
2022/01/31 11:23:13;;;;;;;;;2.00;1.00;;;;;11.05;53.76;101929.66;5053023;28;45584;-83
2022/01/31 11:25:39;;;;;;;;;0.00;0.00;;;;;11.06;54.62;101942.00;5029933;28;50141;-81
2022/01/31 11:28:04;;;;;;;;;4.00;0.00;;;;;10.96;55.03;101943.50;5022304;28;52709;-81
2022/01/31 11:30:30;;;;;;;;;4.67;0.33;;;;;10.85;55.73;101909.72;5054005;28;47283;-82
2022/01/31 11:32:55;;;;;;;;;1.00;1.00;;;;;10.84;55.76;101922.03;5018531;28;45845;-79
2022/01/31 11:35:21;;;;;;;;;0.00;0.00;;;;;10.74;55.94;101912.97;5044295;28;45541;-83
2022/01/31 11:37:46;;;;;;;;;1.33;1.00;;;;;10.79;56.34;101925.41;5052793;28;45540;-79
2022/01/31 11:40:13;;;;;;;;;1.00;1.00;;;;;10.97;55.87;101925.91;5040522;28;47709;-80
2022/01/31 11:42:42;;;;;;;;;3.33;1.00;;;;;11.05;55.17;101920.84;5072174;28;45410;-82
2022/01/31 11:45:08;;;;;;;;;3.00;2.00;;;;;11.09;54.79;101925.34;5040459;28;45585;-78
2022/01/31 11:47:34;;;;;;;;;2.33;1.00;;;;;11.09;54.88;101943.84;5042802;28;47055;-78
2022/01/31 11:50:02;;;;;;;;;2.00;1.00;;;;;11.02;55.28;101962.19;5035300;28;46387;-76
2022/01/31 11:52:51;;;;;;;;;4.67;0.67;;;;;10.69;68.48;102029.91;5038676;28;45603;-78
2022/01/31 11:55:22;;;;;;;;;1.33;0.67;;;;;10.54;66.21;102003.94;5055233;28;45483;-77
2022/01/31 11:57:50;;;;;;;;;3.67;1.00;;;;;10.34;67.41;101969.03;5043218;28;45528;-77